Time;durP1;ratioP1;P1;durP2;ratioP2;P2;SDS_P1;SDS_P2;PMS_P1;PMS_P2;Temp;Humidity;BMP_temperature;BMP_pressure;BME280_temperature;BME280_humidity;BME280_pressure;Samples;Min_cycle;Max_cycle;Signal;HPM_P1;HPM_P2
2021/06/28 00:01:01;;;;;;;8.57;7.78;;;;;;;;;;5071269;28;20031;-55
2021/06/28 00:03:26;;;;;;;7.90;7.18;;;;;;;;;;5088629;28;20458;-53
2021/06/28 00:05:52;;;;;;;8.18;7.57;;;;;;;;;;5086209;28;20111;-55
2021/06/28 00:08:17;;;;;;;7.85;7.25;;;;;;;;;;5074186;28;20024;-56
2021/06/28 00:10:42;;;;;;;8.35;7.68;;;;;;;;;;5071192;28;20398;-55
2021/06/28 00:13:07;;;;;;;7.43;6.82;;;;;;;;;;5083460;28;20066;-54
2021/06/28 00:15:37;;;;;;;7.63;7.05;;;;;;;;;;5092895;28;20025;-55
2021/06/28 00:18:04;;;;;;;9.10;8.20;;;;;;;;;;5074719;28;20025;-54
2021/06/28 00:20:29;;;;;;;7.78;7.28;;;;;;;;;;5071448;28;20550;-55
2021/06/28 00:22:55;;;;;;;7.97;7.22;;;;;;;;;;5074969;28;20155;-55
2021/06/28 00:25:21;;;;;;;8.40;7.70;;;;;;;;;;5085110;28;20035;-55
2021/06/28 00:27:47;;;;;;;8.50;7.80;;;;;;;;;;5077122;28;20059;-54
2021/06/28 00:30:13;;;;;;;7.80;7.20;;;;;;;;;;5073406;28;20048;-55
2021/06/28 00:32:39;;;;;;;8.07;7.38;;;;;;;;;;5089174;28;20563;-55
2021/06/28 00:35:05;;;;;;;7.85;7.25;;;;;;;;;;5092059;28;20110;-54
2021/06/28 00:37:30;;;;;;;7.95;7.35;;;;;;;;;;5080846;28;20148;-55
2021/06/28 00:39:56;;;;;;;8.45;7.72;;;;;;;;;;5077771;28;20035;-55
2021/06/28 00:42:24;;;;;;;8.00;7.22;;;;;;;;;;5070193;28;20066;-55
2021/06/28 00:44:50;;;;;;;7.82;7.20;;;;;;;;;;5074080;28;20120;-54
2021/06/28 00:47:24;;;;;;;7.30;6.70;;;;;;;;;;5073231;28;20044;-55
2021/06/28 00:49:49;;;;;;;7.55;6.95;;;;;;;;;;5073294;28;20016;-55
2021/06/28 00:52:15;;;;;;;7.13;6.63;;;;;;;;;;5081239;28;20031;-55
2021/06/28 00:54:41;;;;;;;7.75;7.15;;;;;;;;;;5075281;28;20020;-55
2021/06/28 00:57:06;;;;;;;7.25;6.65;;;;;;;;;;5092915;28;20016;-54
2021/06/28 00:59:32;;;;;;;7.85;7.25;;;;;;;;;;5092639;28;20074;-55
2021/06/28 01:01:59;;;;;;;8.10;7.50;;;;;;;;;;5089592;28;20036;-55
2021/06/28 01:04:24;;;;;;;7.65;6.95;;;;;;;;;;5076980;28;20024;-55
2021/06/28 01:06:49;;;;;;;8.05;7.45;;;;;;;;;;5086081;28;20047;-55
2021/06/28 01:09:15;;;;;;;7.43;6.93;;;;;;;;;;5072790;28;20028;-53
2021/06/28 01:11:40;;;;;;;7.43;6.82;;;;;;;;;;5072442;28;20013;-53
2021/06/28 01:14:05;;;;;;;7.35;6.75;;;;;;;;;;5092326;28;20016;-53
2021/06/28 01:16:31;;;;;;;7.68;6.97;;;;;;;;;;5073329;28;20359;-54
2021/06/28 01:18:56;;;;;;;7.32;6.72;;;;;;;;;;5073174;28;20032;-54
2021/06/28 01:21:21;;;;;;;7.22;6.72;;;;;;;;;;5084766;28;20070;-53
2021/06/28 01:23:47;;;;;;;7.70;7.07;;;;;;;;;;5080620;28;20209;-55
2021/06/28 01:26:12;;;;;;;7.43;6.88;;;;;;;;;;5072993;28;20025;-54
2021/06/28 01:28:38;;;;;;;8.45;7.80;;;;;;;;;;5093064;28;20065;-55
2021/06/28 01:31:08;;;;;;;7.65;6.95;;;;;;;;;;5089891;28;20039;-54
2021/06/28 01:33:34;;;;;;;8.13;7.38;;;;;;;;;;5075872;28;20021;-56
2021/06/28 01:35:59;;;;;;;7.15;6.50;;;;;;;;;;5091875;28;20020;-55
2021/06/28 01:38:25;;;;;;;7.10;6.50;;;;;;;;;;5092689;28;20352;-55
2021/06/28 01:40:50;;;;;;;7.68;6.82;;;;;;;;;;5086759;28;20565;-54
2021/06/28 01:43:16;;;;;;;7.75;7.10;;;;;;;;;;5087212;28;20023;-56
2021/06/28 01:45:41;;;;;;;7.72;7.00;;;;;;;;;;5075825;28;20099;-53
2021/06/28 01:48:07;;;;;;;7.53;6.50;;;;;;;;;;5073618;28;20357;-55
2021/06/28 01:50:33;;;;;;;7.60;7.00;;;;;;;;;;5077880;28;20215;-56
2021/06/28 01:52:59;;;;;;;7.13;6.63;;;;;;;;;;5086009;28;20082;-53
2021/06/28 01:55:25;;;;;;;7.40;6.85;;;;;;;;;;5080971;28;20016;-54
2021/06/28 01:57:55;;;;;;;7.30;6.80;;;;;;;;;;5073980;28;20047;-54
2021/06/28 02:00:22;;;;;;;7.05;6.55;;;;;;;;;;5070875;28;20020;-55
2021/06/28 02:02:57;;;;;;;7.25;6.75;;;;;;;;;;5071361;28;20041;-57
2021/06/28 02:05:22;;;;;;;7.75;7.13;;;;;;;;;;5092675;28;20099;-57
2021/06/28 02:07:47;;;;;;;7.93;7.10;;;;;;;;;;5098642;28;20063;-56
2021/06/28 02:10:12;;;;;;;8.15;7.55;;;;;;;;;;5081099;28;20047;-54
2021/06/28 02:12:38;;;;;;;7.07;6.47;;;;;;;;;;5076628;28;20034;-56
2021/06/28 02:15:04;;;;;;;7.38;6.78;;;;;;;;;;5094715;28;20016;-57
2021/06/28 02:17:29;;;;;;;7.97;7.20;;;;;;;;;;5084167;28;20163;-55
2021/06/28 02:19:54;;;;;;;7.35;6.85;;;;;;;;;;5087738;28;20020;-56
2021/06/28 02:22:19;;;;;;;7.50;6.90;;;;;;;;;;5084332;28;20032;-56
2021/06/28 02:24:44;;;;;;;7.93;7.22;;;;;;;;;;5089765;28;20016;-56
2021/06/28 02:27:10;;;;;;;8.30;7.57;;;;;;;;;;5098379;28;20024;-53
2021/06/28 02:29:35;;;;;;;8.18;7.53;;;;;;;;;;5098133;28;20073;-55
2021/06/28 02:32:01;;;;;;;7.82;7.13;;;;;;;;;;5096006;28;20028;-56
2021/06/28 02:34:26;;;;;;;7.85;7.05;;;;;;;;;;5097284;28;20022;-53
2021/06/28 02:36:52;;;;;;;7.60;7.03;;;;;;;;;;5081451;28;20021;-53
2021/06/28 02:39:17;;;;;;;7.43;6.85;;;;;;;;;;5095565;28;20028;-54
2021/06/28 02:41:42;;;;;;;7.95;7.15;;;;;;;;;;5092336;28;20016;-55
2021/06/28 02:44:08;;;;;;;7.78;7.10;;;;;;;;;;5079269;28;20020;-56
2021/06/28 02:46:33;;;;;;;7.57;6.97;;;;;;;;;;5096679;28;20403;-54
2021/06/28 02:48:58;;;;;;;7.15;6.55;;;;;;;;;;5096953;28;20016;-54
2021/06/28 02:51:24;;;;;;;7.22;6.72;;;;;;;;;;5095169;28;20024;-55
2021/06/28 02:53:49;;;;;;;6.93;6.43;;;;;;;;;;5098059;28;20103;-55
2021/06/28 02:56:16;;;;;;;7.38;6.82;;;;;;;;;;5082185;28;20020;-56
2021/06/28 02:58:45;;;;;;;6.90;6.30;;;;;;;;;;5087808;28;20020;-53
2021/06/28 03:01:11;;;;;;;7.10;6.47;;;;;;;;;;5091038;28;20048;-54
2021/06/28 03:03:37;;;;;;;7.30;6.60;;;;;;;;;;5095237;28;20024;-56
2021/06/28 03:06:02;;;;;;;6.75;6.13;;;;;;;;;;5088939;28;20012;-54
2021/06/28 03:08:28;;;;;;;7.50;6.85;;;;;;;;;;5078268;28;20021;-53
2021/06/28 03:10:53;;;;;;;7.80;7.20;;;;;;;;;;5075709;28;20077;-55
2021/06/28 03:13:18;;;;;;;8.40;7.45;;;;;;;;;;5081783;28;20388;-55
2021/06/28 03:15:43;;;;;;;8.38;7.70;;;;;;;;;;5082161;28;20367;-54
2021/06/28 03:18:09;;;;;;;8.27;7.47;;;;;;;;;;5094679;28;20471;-56
2021/06/28 03:20:34;;;;;;;8.00;7.40;;;;;;;;;;5090830;28;20281;-54
2021/06/28 03:22:59;;;;;;;8.10;7.40;;;;;;;;;;5086451;28;20447;-56
2021/06/28 03:25:25;;;;;;;7.47;6.88;;;;;;;;;;5078361;28;20507;-57
2021/06/28 03:27:50;;;;;;;7.95;7.35;;;;;;;;;;5075164;28;20067;-55
2021/06/28 03:30:15;;;;;;;8.10;7.40;;;;;;;;;;5074149;28;20476;-55
2021/06/28 03:32:41;;;;;;;8.60;7.80;;;;;;;;;;5087727;28;20009;-55
2021/06/28 03:35:07;;;;;;;7.95;7.20;;;;;;;;;;5095043;28;20495;-56
2021/06/28 03:37:32;;;;;;;7.70;7.00;;;;;;;;;;5082415;28;20029;-55
2021/06/28 03:39:57;;;;;;;7.78;7.10;;;;;;;;;;5079953;28;20028;-54
2021/06/28 03:42:22;;;;;;;8.15;7.47;;;;;;;;;;5075954;28;20028;-57
2021/06/28 03:44:47;;;;;;;9.10;7.10;;;;;;;;;;5094867;28;20039;-55
2021/06/28 03:47:13;;;;;;;7.70;6.93;;;;;;;;;;5094431;28;20016;-55
2021/06/28 03:49:38;;;;;;;6.95;6.45;;;;;;;;;;5091809;28;20016;-55
2021/06/28 03:52:03;;;;;;;6.68;6.15;;;;;;;;;;5071865;28;20031;-55
2021/06/28 03:54:28;;;;;;;6.10;5.55;;;;;;;;;;5074910;28;20043;-56
2021/06/28 03:56:54;;;;;;;6.57;6.07;;;;;;;;;;5074406;28;20134;-55
2021/06/28 03:59:19;;;;;;;7.15;6.55;;;;;;;;;;5082755;28;20470;-55
2021/06/28 04:01:44;;;;;;;6.18;5.68;;;;;;;;;;5072172;28;20045;-55
2021/06/28 04:04:10;;;;;;;6.43;5.95;;;;;;;;;;5094708;28;20352;-52
2021/06/28 04:06:35;;;;;;;6.13;5.40;;;;;;;;;;5094401;28;20020;-55
2021/06/28 04:09:00;;;;;;;6.75;6.15;;;;;;;;;;5088113;28;20016;-52
2021/06/28 04:11:28;;;;;;;5.63;5.22;;;;;;;;;;5071107;28;20110;-56
2021/06/28 04:13:53;;;;;;;5.97;5.47;;;;;;;;;;5091841;28;20051;-55
2021/06/28 04:16:19;;;;;;;6.10;5.70;;;;;;;;;;5084320;28;20063;-56
2021/06/28 04:18:44;;;;;;;5.78;5.28;;;;;;;;;;5082872;28;20077;-56
2021/06/28 04:21:09;;;;;;;5.18;4.78;;;;;;;;;;5073637;28;20020;-56
2021/06/28 04:23:34;;;;;;;5.22;4.82;;;;;;;;;;5075975;28;20349;-56
2021/06/28 04:26:00;;;;;;;5.38;4.93;;;;;;;;;;5076999;28;20044;-56
2021/06/28 04:28:25;;;;;;;5.68;5.00;;;;;;;;;;5088548;28;20020;-55
2021/06/28 04:30:50;;;;;;;5.80;5.30;;;;;;;;;;5090668;28;20020;-56
2021/06/28 04:33:15;;;;;;;6.40;5.55;;;;;;;;;;5080588;28;20063;-56
2021/06/28 04:35:40;;;;;;;5.65;5.15;;;;;;;;;;5073823;28;20024;-52
2021/06/28 04:38:06;;;;;;;5.97;5.35;;;;;;;;;;5081127;28;20020;-54
2021/06/28 04:40:31;;;;;;;5.05;4.65;;;;;;;;;;5073015;28;20205;-53
2021/06/28 04:42:57;;;;;;;4.82;4.43;;;;;;;;;;5082759;28;20009;-56
2021/06/28 04:45:23;;;;;;;4.88;4.35;;;;;;;;;;5075738;28;20383;-55
2021/06/28 04:47:48;;;;;;;4.40;4.00;;;;;;;;;;5093231;28;20558;-55
2021/06/28 04:50:15;;;;;;;5.68;4.60;;;;;;;;;;5091350;28;20529;-56
2021/06/28 04:52:40;;;;;;;4.30;3.90;;;;;;;;;;5089364;28;20408;-54
2021/06/28 04:55:06;;;;;;;4.80;4.40;;;;;;;;;;5089979;28;20053;-52
2021/06/28 04:57:32;;;;;;;4.70;4.30;;;;;;;;;;5086167;28;20024;-54
2021/06/28 04:59:57;;;;;;;4.78;4.38;;;;;;;;;;5078340;28;20016;-54
2021/06/28 05:02:22;;;;;;;4.80;4.40;;;;;;;;;;5077533;28;20071;-57
2021/06/28 05:04:48;;;;;;;4.88;4.30;;;;;;;;;;5092549;28;20016;-53
2021/06/28 05:07:14;;;;;;;5.57;3.95;;;;;;;;;;5092549;28;20379;-55
2021/06/28 05:09:39;;;;;;;4.60;4.30;;;;;;;;;;5084452;28;20008;-55
2021/06/28 05:12:05;;;;;;;4.82;4.53;;;;;;;;;;5084312;28;20027;-55
2021/06/28 05:14:30;;;;;;;5.65;4.65;;;;;;;;;;5092919;28;20583;-53
2021/06/28 05:16:55;;;;;;;4.72;4.32;;;;;;;;;;5088438;28;20024;-57
2021/06/28 05:19:20;;;;;;;6.15;4.30;;;;;;;;;;5084678;28;20016;-52
2021/06/28 05:21:45;;;;;;;6.13;4.57;;;;;;;;;;5082481;28;20024;-55
2021/06/28 05:24:11;;;;;;;4.50;4.10;;;;;;;;;;5076976;28;20013;-55
2021/06/28 05:26:36;;;;;;;5.40;4.53;;;;;;;;;;5089794;28;20012;-56
2021/06/28 05:29:01;;;;;;;6.50;4.22;;;;;;;;;;5083538;28;20021;-54
2021/06/28 05:31:26;;;;;;;5.53;4.18;;;;;;;;;;5069362;28;20117;-56
2021/06/28 05:33:52;;;;;;;4.88;4.28;;;;;;;;;;5085563;28;20024;-55
2021/06/28 05:36:17;;;;;;;5.05;4.03;;;;;;;;;;5091200;28;20391;-55
2021/06/28 05:38:43;;;;;;;4.82;4.25;;;;;;;;;;5091902;28;20020;-57
2021/06/28 05:41:08;;;;;;;6.65;4.00;;;;;;;;;;5076754;28;20081;-55
2021/06/28 05:43:33;;;;;;;4.57;3.85;;;;;;;;;;5083365;28;20018;-55
2021/06/28 05:45:58;;;;;;;6.82;3.90;;;;;;;;;;5081410;28;20066;-53
2021/06/28 05:48:24;;;;;;;5.32;3.90;;;;;;;;;;5080974;28;20348;-56
2021/06/28 05:50:49;;;;;;;4.45;4.05;;;;;;;;;;5087937;28;20016;-54
2021/06/28 05:53:15;;;;;;;5.63;4.43;;;;;;;;;;5075150;28;20020;-54
2021/06/28 05:55:40;;;;;;;5.43;3.80;;;;;;;;;;5086959;28;20451;-55
2021/06/28 05:58:06;;;;;;;5.07;4.32;;;;;;;;;;5091560;28;20102;-55
2021/06/28 06:00:31;;;;;;;4.60;3.78;;;;;;;;;;5070227;28;20120;-56
2021/06/28 06:03:00;;;;;;;4.10;3.72;;;;;;;;;;5090373;28;20119;-55
2021/06/28 06:05:25;;;;;;;5.10;3.58;;;;;;;;;;5090545;28;20032;-54
2021/06/28 06:07:50;;;;;;;3.72;3.45;;;;;;;;;;5091199;28;20020;-54
2021/06/28 06:10:16;;;;;;;4.30;3.53;;;;;;;;;;5081203;28;20023;-56
2021/06/28 06:12:41;;;;;;;5.65;3.60;;;;;;;;;;5090125;28;20044;-54
2021/06/28 06:15:08;;;;;;;5.07;3.55;;;;;;;;;;5082133;28;20077;-55
2021/06/28 06:17:33;;;;;;;5.97;2.92;;;;;;;;;;5090820;28;20055;-57
2021/06/28 06:19:59;;;;;;;3.35;2.90;;;;;;;;;;5082374;28;20055;-57
2021/06/28 06:22:24;;;;;;;3.10;2.90;;;;;;;;;;5078003;28;20320;-56
2021/06/28 06:24:49;;;;;;;3.70;3.40;;;;;;;;;;5077772;28;20023;-56
2021/06/28 06:27:14;;;;;;;3.73;3.10;;;;;;;;;;5089591;28;20028;-56
2021/06/28 06:29:40;;;;;;;3.47;3.17;;;;;;;;;;5079040;28;20270;-56
2021/06/28 06:32:06;;;;;;;3.15;2.70;;;;;;;;;;5080810;28;20266;-56
2021/06/28 06:34:31;;;;;;;3.20;3.00;;;;;;;;;;5078415;28;20561;-57
2021/06/28 06:36:56;;;;;;;3.15;2.83;;;;;;;;;;5072272;28;20032;-56
2021/06/28 06:39:21;;;;;;;3.60;3.30;;;;;;;;;;5088489;28;20112;-54
2021/06/28 06:41:47;;;;;;;3.23;2.93;;;;;;;;;;5085384;28;20274;-55
2021/06/28 06:44:12;;;;;;;3.28;2.97;;;;;;;;;;5082255;28;20274;-53
2021/06/28 06:46:37;;;;;;;3.05;2.83;;;;;;;;;;5083498;28;20110;-52
2021/06/28 06:49:03;;;;;;;3.47;2.83;;;;;;;;;;5091970;28;20399;-56
2021/06/28 06:51:29;;;;;;;3.55;3.10;;;;;;;;;;5086121;28;20055;-55
2021/06/28 06:53:54;;;;;;;3.53;2.80;;;;;;;;;;5089218;28;20043;-56
2021/06/28 06:56:19;;;;;;;3.28;2.83;;;;;;;;;;5094618;28;20103;-55
2021/06/28 06:58:44;;;;;;;4.30;3.30;;;;;;;;;;5093880;28;20054;-56
2021/06/28 07:01:13;;;;;;;3.80;3.20;;;;;;;;;;5071922;28;20371;-55
2021/06/28 07:03:39;;;;;;;4.68;3.00;;;;;;;;;;5080768;28;20784;-55
2021/06/28 07:06:04;;;;;;;3.38;3.10;;;;;;;;;;5090442;28;20020;-49
2021/06/28 07:08:29;;;;;;;3.85;2.90;;;;;;;;;;5091911;28;20126;-55
2021/06/28 07:10:54;;;;;;;6.45;3.13;;;;;;;;;;5092479;28;20020;-56
2021/06/28 07:13:20;;;;;;;4.93;3.37;;;;;;;;;;5087604;28;20021;-52
2021/06/28 07:15:45;;;;;;;3.40;2.85;;;;;;;;;;5075228;28;20266;-55
2021/06/28 07:18:10;;;;;;;3.97;3.28;;;;;;;;;;5075209;28;20024;-54
2021/06/28 07:20:35;;;;;;;3.10;2.90;;;;;;;;;;5073584;28;20032;-56
2021/06/28 07:23:01;;;;;;;3.90;3.22;;;;;;;;;;5090751;28;20028;-55
2021/06/28 07:25:26;;;;;;;3.70;3.10;;;;;;;;;;5078525;28;20048;-56
2021/06/28 07:27:52;;;;;;;3.03;2.83;;;;;;;;;;5083407;28;20016;-57
2021/06/28 07:30:19;;;;;;;3.63;3.30;;;;;;;;;;5084079;28;20027;-55
2021/06/28 07:32:45;;;;;;;5.90;2.90;;;;;;;;;;5090746;28;20075;-55
2021/06/28 07:35:10;;;;;;;3.25;2.80;;;;;;;;;;5087447;28;20029;-52
2021/06/28 07:37:36;;;;;;;3.45;2.70;;;;;;;;;;5095640;28;20019;-56
2021/06/28 07:40:02;;;;;;;2.67;2.47;;;;;;;;;;5089869;28;20036;-57
2021/06/28 07:42:27;;;;;;;4.53;2.50;;;;;;;;;;5088034;28;20482;-56
2021/06/28 07:44:52;;;;;;;3.03;2.83;;;;;;;;;;5083378;28;20024;-54
2021/06/28 07:47:18;;;;;;;3.42;2.90;;;;;;;;;;5094232;28;20023;-56
2021/06/28 07:49:44;;;;;;;2.92;2.63;;;;;;;;;;5083278;28;20082;-54
2021/06/28 07:52:10;;;;;;;3.70;2.53;;;;;;;;;;5084913;28;20026;-56
2021/06/28 07:54:36;;;;;;;4.07;2.75;;;;;;;;;;5089684;28;20395;-54
2021/06/28 07:57:01;;;;;;;2.55;2.35;;;;;;;;;;5088277;28;20082;-57
2021/06/28 07:59:26;;;;;;;2.50;2.30;;;;;;;;;;5078703;28;20027;-56
2021/06/28 08:01:52;;;;;;;3.50;2.60;;;;;;;;;;5089773;28;20036;-56
2021/06/28 08:04:17;;;;;;;2.42;2.22;;;;;;;;;;5076067;28;20273;-55
2021/06/28 08:06:43;;;;;;;2.40;2.20;;;;;;;;;;5080076;28;20114;-56
2021/06/28 08:09:09;;;;;;;3.13;2.63;;;;;;;;;;5090390;28;20441;-55
2021/06/28 08:11:34;;;;;;;3.10;2.80;;;;;;;;;;5074069;28;20816;-55
2021/06/28 08:14:02;;;;;;;3.05;2.85;;;;;;;;;;5088213;28;20012;-55
2021/06/28 08:16:27;;;;;;;2.50;2.30;;;;;;;;;;5084177;28;20418;-57
2021/06/28 08:18:53;;;;;;;3.20;2.50;;;;;;;;;;5092977;28;20042;-57
2021/06/28 08:21:19;;;;;;;2.67;2.40;;;;;;;;;;5076537;28;20021;-57
2021/06/28 08:23:44;;;;;;;2.72;2.00;;;;;;;;;;5075993;28;20507;-57
2021/06/28 08:26:10;;;;;;;2.58;2.47;;;;;;;;;;5074981;28;20468;-58
2021/06/28 08:28:36;;;;;;;2.88;2.42;;;;;;;;;;5082527;28;20051;-53
2021/06/28 08:31:01;;;;;;;2.45;2.30;;;;;;;;;;5089875;28;20123;-58
2021/06/28 08:33:26;;;;;;;2.38;2.20;;;;;;;;;;5084276;28;20020;-57
2021/06/28 08:35:51;;;;;;;2.05;1.95;;;;;;;;;;5087431;28;20020;-54
2021/06/28 08:38:16;;;;;;;2.50;1.92;;;;;;;;;;5092801;28;20063;-55
2021/06/28 08:40:42;;;;;;;2.22;2.05;;;;;;;;;;5090537;28;20016;-56
2021/06/28 08:43:08;;;;;;;3.25;2.40;;;;;;;;;;5093832;28;20030;-54
2021/06/28 08:45:34;;;;;;;2.30;2.13;;;;;;;;;;5093519;28;20012;-52
2021/06/28 08:48:00;;;;;;;2.30;2.10;;;;;;;;;;5089044;28;20387;-54
2021/06/28 08:50:25;;;;;;;2.28;2.05;;;;;;;;;;5078960;28;20021;-54
2021/06/28 08:52:50;;;;;;;1.98;1.88;;;;;;;;;;5072569;28;20463;-57
2021/06/28 08:55:16;;;;;;;2.15;2.03;;;;;;;;;;5080605;28;20023;-54
2021/06/28 08:57:41;;;;;;;2.17;2.07;;;;;;;;;;5091660;28;20545;-51
2021/06/28 09:00:09;;;;;;;2.23;2.03;;;;;;;;;;5093289;28;20292;-56
2021/06/28 09:02:34;;;;;;;2.17;1.90;;;;;;;;;;5085431;28;20612;-55
2021/06/28 09:05:02;;;;;;;2.58;2.13;;;;;;;;;;5093083;28;20130;-53
2021/06/28 09:07:27;;;;;;;2.05;1.85;;;;;;;;;;5092962;28;20102;-56
2021/06/28 09:09:53;;;;;;;1.93;1.83;;;;;;;;;;5093286;28;20095;-57
2021/06/28 09:12:18;;;;;;;2.33;2.22;;;;;;;;;;5089815;28;20316;-56
2021/06/28 09:15:04;;;;;;;1.83;1.70;;;;;;;;;;5092573;28;20020;-55
2021/06/28 09:17:37;;;;;;;2.20;2.00;;;;;;;;;;5091560;28;20340;-58
2021/06/28 09:20:09;;;;;;;2.10;1.88;;;;;;;;;;5084120;28;20035;-58
2021/06/28 09:22:34;;;;;;;2.13;2.00;;;;;;;;;;5075335;28;20485;-56
2021/06/28 09:24:59;;;;;;;1.70;1.60;;;;;;;;;;5085102;28;20039;-56
2021/06/28 09:27:26;;;;;;;1.80;1.70;;;;;;;;;;5091550;28;20807;-55
2021/06/28 09:29:54;;;;;;;3.63;1.90;;;;;;;;;;5092594;28;20258;-57
2021/06/28 09:32:20;;;;;;;2.25;1.67;;;;;;;;;;5083875;28;20467;-53
2021/06/28 09:34:46;;;;;;;2.58;1.90;;;;;;;;;;5090956;28;20107;-55
2021/06/28 09:37:13;;;;;;;2.08;1.75;;;;;;;;;;5072244;28;20070;-55
2021/06/28 09:39:39;;;;;;;2.10;1.90;;;;;;;;;;5091595;28;20020;-56
2021/06/28 09:42:07;;;;;;;1.80;1.70;;;;;;;;;;5076913;28;20024;-55
2021/06/28 09:44:33;;;;;;;2.33;1.52;;;;;;;;;;5088387;28;20103;-55
2021/06/28 09:47:05;;;;;;;1.60;1.52;;;;;;;;;;5092114;28;20056;-56
2021/06/28 09:49:31;;;;;;;2.00;1.85;;;;;;;;;;5092377;28;20481;-56
2021/06/28 09:51:56;;;;;;;1.80;1.70;;;;;;;;;;5088822;28;20605;-55
2021/06/28 09:54:21;;;;;;;1.63;1.53;;;;;;;;;;5072284;28;20029;-55
2021/06/28 09:56:47;;;;;;;1.58;1.48;;;;;;;;;;5073191;28;20618;-54
2021/06/28 09:59:28;;;;;;;1.90;1.70;;;;;;;;;;5077358;28;20505;-57
2021/06/28 10:02:12;;;;;;;5.10;1.80;;;;;;;;;;5087818;28;20123;-55
2021/06/28 10:04:44;;;;;;;;;;;;;;;;;;5092921;28;20479;-54
2021/06/28 10:07:39;;;;;;;3.05;1.33;;;;;;;;;;5092767;28;19949;-51
2021/06/28 10:10:04;;;;;;;;;;;;;;;;;;5068732;28;20028;-53
2021/06/28 10:12:29;;;;;;;1.73;1.55;;;;;;;;;;5088735;28;19914;-55
2021/06/28 10:14:55;;;;;;;1.20;1.20;;;;;;;;;;5092310;28;20099;-55
2021/06/28 10:17:20;;;;;;;2.20;1.40;;;;;;;;;;5092263;28;20024;-55
2021/06/28 10:19:45;;;;;;;1.30;1.30;;;;;;;;;;5091049;28;20047;-54
2021/06/28 10:22:11;;;;;;;1.38;1.38;;;;;;;;;;5076029;28;20025;-53
2021/06/28 10:24:36;;;;;;;1.33;1.20;;;;;;;;;;5086822;28;20008;-53
2021/06/28 10:27:05;;;;;;;1.20;1.20;;;;;;;;;;5088761;28;20021;-55
2021/06/28 10:29:32;;;;;;;1.85;1.23;;;;;;;;;;5084298;28;20016;-56
2021/06/28 10:32:01;;;;;;;2.45;1.20;;;;;;;;;;5083217;28;20154;-55
2021/06/28 10:34:26;;;;;;;1.52;1.42;;;;;;;;;;5083769;28;20039;-56
2021/06/28 10:36:55;;;;;;;1.42;1.38;;;;;;;;;;5093535;28;20475;-55
2021/06/28 10:39:24;;;;;;;2.45;1.35;;;;;;;;;;5094029;28;20020;-57
2021/06/28 10:41:50;;;;;;;2.90;1.48;;;;;;;;;;5081693;28;20020;-56
2021/06/28 10:44:16;;;;;;;1.65;1.30;;;;;;;;;;5095819;28;20027;-56
2021/06/28 10:46:43;;;;;;;1.42;1.33;;;;;;;;;;5090476;28;20480;-54
2021/06/28 10:49:09;;;;;;;1.40;1.40;;;;;;;;;;5090928;28;20020;-55
2021/06/28 10:51:37;;;;;;;1.60;1.50;;;;;;;;;;5092057;28;20395;-56
2021/06/28 10:54:02;;;;;;;3.10;1.90;;;;;;;;;;5076716;28;20028;-56
2021/06/28 10:56:27;;;;;;;1.58;1.48;;;;;;;;;;5092380;28;20038;-55
2021/06/28 10:58:59;;;;;;;1.65;1.50;;;;;;;;;;5090206;28;20035;-56
2021/06/28 11:01:40;;;;;;;1.85;1.33;;;;;;;;;;5083454;28;20063;-53
2021/06/28 11:04:06;;;;;;;2.22;1.23;;;;;;;;;;5076537;28;20023;-56
2021/06/28 11:06:31;;;;;;;1.13;1.13;;;;;;;;;;5076864;28;20044;-55
2021/06/28 11:09:06;;;;;;;1.08;0.98;;;;;;;;;;5089731;28;20431;-56
2021/06/28 11:11:43;;;;;;;1.10;1.00;;;;;;;;;;5076361;28;20036;-56
2021/06/28 11:14:10;;;;;;;1.00;1.00;;;;;;;;;;5078931;28;20101;-53
2021/06/28 11:16:35;;;;;;;1.90;1.05;;;;;;;;;;5090005;28;20137;-55
2021/06/28 11:19:01;;;;;;;0.80;0.80;;;;;;;;;;5092514;28;20103;-55
2021/06/28 11:21:38;;;;;;;1.25;1.10;;;;;;;;;;5088882;28;20031;-54
2021/06/28 11:24:03;;;;;;;1.30;1.30;;;;;;;;;;5079891;28;20013;-55
2021/06/28 11:26:35;;;;;;;1.88;1.23;;;;;;;;;;5085007;28;20103;-56
2021/06/28 11:29:01;;;;;;;1.13;1.10;;;;;;;;;;5090749;28;20036;-56
2021/06/28 11:31:30;;;;;;;1.17;1.10;;;;;;;;;;5080214;28;20030;-57
2021/06/28 11:33:57;;;;;;;1.42;1.33;;;;;;;;;;5087823;28;20066;-54
2021/06/28 11:36:23;;;;;;;1.55;1.45;;;;;;;;;;5090261;28;20023;-54
2021/06/28 11:38:48;;;;;;;1.40;1.30;;;;;;;;;;5092835;28;20045;-54
2021/06/28 11:41:15;;;;;;;1.08;0.98;;;;;;;;;;5073032;28;20025;-54
2021/06/28 11:43:44;;;;;;;1.65;1.40;;;;;;;;;;5079514;28;20376;-54
2021/06/28 11:46:12;;;;;;;1.10;1.10;;;;;;;;;;5087320;28;20016;-53
2021/06/28 11:48:40;;;;;;;1.20;1.20;;;;;;;;;;5091173;28;20031;-55
2021/06/28 11:51:19;;;;;;;1.40;1.30;;;;;;;;;;5071193;28;20029;-56
2021/06/28 11:54:04;;;;;;;1.40;0.98;;;;;;;;;;5088908;28;20557;-55
2021/06/28 11:56:29;;;;;;;1.10;1.10;;;;;;;;;;5082476;28;20039;-56
2021/06/28 11:58:59;;;;;;;1.27;1.17;;;;;;;;;;5080885;28;20029;-55
2021/06/28 12:01:26;;;;;;;1.88;1.23;;;;;;;;;;5078170;28;20036;-56
2021/06/28 12:03:51;;;;;;;1.48;1.10;;;;;;;;;;5093607;28;20047;-52
2021/06/28 12:06:17;;;;;;;1.40;1.30;;;;;;;;;;5080513;28;20108;-55
2021/06/28 12:08:44;;;;;;;1.98;1.40;;;;;;;;;;5089131;28;20189;-55
2021/06/28 12:11:09;;;;;;;1.20;1.10;;;;;;;;;;5089959;28;20034;-55
2021/06/28 12:13:36;;;;;;;1.98;1.55;;;;;;;;;;5087677;28;20032;-56
2021/06/28 12:16:20;;;;;;;1.30;1.20;;;;;;;;;;5085651;28;20024;-55
2021/06/28 12:18:45;;;;;;;1.40;1.30;;;;;;;;;;5082908;28;20458;-53
2021/06/28 12:21:10;;;;;;;1.70;1.17;;;;;;;;;;5074362;28;20115;-54
2021/06/28 12:23:36;;;;;;;1.52;1.15;;;;;;;;;;5082916;28;20031;-53
2021/06/28 12:26:11;;;;;;;3.80;1.30;;;;;;;;;;5086494;28;20024;-54
2021/06/28 12:28:36;;;;;;;1.75;1.60;;;;;;;;;;5090650;28;20012;-54
2021/06/28 12:31:11;;;;;;;1.30;1.30;;;;;;;;;;5085313;28;20387;-54
2021/06/28 12:33:37;;;;;;;1.15;1.13;;;;;;;;;;5081793;28;20435;-54
2021/06/28 12:36:03;;;;;;;1.23;1.23;;;;;;;;;;5091288;28;20055;-53
2021/06/28 12:38:29;;;;;;;1.95;1.10;;;;;;;;;;5083140;28;20024;-55
2021/06/28 12:40:55;;;;;;;1.35;1.05;;;;;;;;;;5072873;28;20074;-56
2021/06/28 12:43:22;;;;;;;0.93;0.93;;;;;;;;;;5093384;28;20016;-55
2021/06/28 12:45:51;;;;;;;1.20;1.20;;;;;;;;;;5092958;28;20041;-55
2021/06/28 12:48:23;;;;;;;2.13;1.10;;;;;;;;;;5090958;28;20039;-53
2021/06/28 12:50:56;;;;;;;1.70;1.05;;;;;;;;;;5085910;28;20027;-53
2021/06/28 12:53:21;;;;;;;1.00;1.00;;;;;;;;;;5088459;28;20111;-55
2021/06/28 12:55:48;;;;;;;1.15;1.15;;;;;;;;;;5076153;28;20286;-56
2021/06/28 12:58:19;;;;;;;1.40;1.30;;;;;;;;;;5089116;28;20125;-56
2021/06/28 13:00:46;;;;;;;1.83;1.73;;;;;;;;;;5073806;28;20047;-54
2021/06/28 13:03:12;;;;;;;1.10;1.10;;;;;;;;;;5084814;28;20137;-56
2021/06/28 13:05:38;;;;;;;1.10;1.10;;;;;;;;;;5090854;28;20016;-54
2021/06/28 13:08:11;;;;;;;1.27;1.17;;;;;;;;;;5077392;28;20024;-56
2021/06/28 13:10:36;;;;;;;1.10;1.10;;;;;;;;;;5080907;28;20096;-55
2021/06/28 13:13:21;;;;;;;1.30;1.17;;;;;;;;;;5081134;28;20103;-55
2021/06/28 13:16:05;;;;;;;1.73;1.10;;;;;;;;;;5092721;28;20020;-55
2021/06/28 13:18:30;;;;;;;1.20;1.10;;;;;;;;;;5080728;28;20026;-56
2021/06/28 13:20:56;;;;;;;1.67;1.20;;;;;;;;;;5069381;28;20016;-55
2021/06/28 13:23:23;;;;;;;1.40;0.98;;;;;;;;;;5072580;28;20273;-54
2021/06/28 13:25:48;;;;;;;1.35;0.80;;;;;;;;;;5072256;28;20516;-55
2021/06/28 13:28:14;;;;;;;0.90;0.90;;;;;;;;;;5077753;28;20103;-52
2021/06/28 13:30:39;;;;;;;0.90;0.80;;;;;;;;;;5078959;28;20017;-54
2021/06/28 13:33:05;;;;;;;1.70;1.00;;;;;;;;;;5080434;28;20016;-54
2021/06/28 13:35:31;;;;;;;1.20;0.90;;;;;;;;;;5076663;28;20024;-54
2021/06/28 13:38:13;;;;;;;1.25;1.00;;;;;;;;;;5078360;28;20031;-56
2021/06/28 13:40:39;;;;;;;1.00;1.00;;;;;;;;;;5075609;28;20012;-56
2021/06/28 13:43:05;;;;;;;0.90;0.90;;;;;;;;;;5076209;28;20475;-53
2021/06/28 13:45:40;;;;;;;1.38;1.10;;;;;;;;;;5086915;28;20188;-55
2021/06/28 13:48:07;;;;;;;1.55;1.00;;;;;;;;;;5072816;28;20112;-55
2021/06/28 13:50:32;;;;;;;0.93;0.93;;;;;;;;;;5079400;28;20008;-56
2021/06/28 13:52:58;;;;;;;2.37;0.93;;;;;;;;;;5070326;28;20043;-56
2021/06/28 13:55:24;;;;;;;1.10;1.00;;;;;;;;;;5078266;28;20122;-56
2021/06/28 13:57:51;;;;;;;0.80;0.80;;;;;;;;;;5075923;28;20077;-56
2021/06/28 14:00:17;;;;;;;0.93;0.90;;;;;;;;;;5074074;28;20103;-56
2021/06/28 14:02:42;;;;;;;0.90;0.90;;;;;;;;;;5074609;28;20053;-53
2021/06/28 14:05:08;;;;;;;0.98;0.98;;;;;;;;;;5085536;28;20470;-56
2021/06/28 14:07:33;;;;;;;2.15;1.30;;;;;;;;;;5087667;28;20368;-53
2021/06/28 14:09:58;;;;;;;1.00;1.00;;;;;;;;;;5083667;28;20519;-51
2021/06/28 14:12:23;;;;;;;1.07;0.97;;;;;;;;;;5077887;28;20027;-53
2021/06/28 14:14:49;;;;;;;1.70;1.13;;;;;;;;;;5087170;28;20027;-54
2021/06/28 14:17:14;;;;;;;0.80;0.77;;;;;;;;;;5090279;28;20077;-54
2021/06/28 14:19:39;;;;;;;0.87;0.87;;;;;;;;;;5080658;28;20047;-53
2021/06/28 14:22:04;;;;;;;1.07;1.07;;;;;;;;;;5081300;28;20030;-55
2021/06/28 14:24:30;;;;;;;0.90;0.90;;;;;;;;;;5088457;28;20031;-54
2021/06/28 14:26:55;;;;;;;1.63;1.00;;;;;;;;;;5089778;28;20262;-55
2021/06/28 14:29:20;;;;;;;1.03;1.03;;;;;;;;;;5074844;28;20496;-55
2021/06/28 14:31:45;;;;;;;1.30;0.83;;;;;;;;;;5075349;28;20305;-55
2021/06/28 14:34:11;;;;;;;0.90;0.90;;;;;;;;;;5081912;28;20379;-53
2021/06/28 14:36:36;;;;;;;0.87;0.87;;;;;;;;;;5086154;28;20479;-50
2021/06/28 14:39:01;;;;;;;0.90;0.90;;;;;;;;;;5082440;28;20032;-54